sensor_id;sensor_type;location;lat;lon;timestamp;temperature;humidity
59208;DHT22;44977;53.132;6.408;2024-03-17T00:03:13;5.30;99.90
59208;DHT22;44977;53.132;6.408;2024-03-17T00:08:13;5.20;99.90
59208;DHT22;44977;53.132;6.408;2024-03-17T00:13:15;5.10;99.90
59208;DHT22;44977;53.132;6.408;2024-03-17T00:18:16;5.10;99.90
59208;DHT22;44977;53.132;6.408;2024-03-17T00:23:17;5.00;99.90
59208;DHT22;44977;53.132;6.408;2024-03-17T00:28:17;5.00;99.90
59208;DHT22;44977;53.132;6.408;2024-03-17T00:33:18;4.80;99.90
59208;DHT22;44977;53.132;6.408;2024-03-17T00:38:19;4.80;99.90
59208;DHT22;44977;53.132;6.408;2024-03-17T00:43:20;4.70;99.90
59208;DHT22;44977;53.132;6.408;2024-03-17T00:48:21;4.60;99.90
59208;DHT22;44977;53.132;6.408;2024-03-17T00:53:21;4.60;99.90
59208;DHT22;44977;53.132;6.408;2024-03-17T00:58:22;4.50;99.90
59208;DHT22;44977;53.132;6.408;2024-03-17T01:03:23;4.40;99.90
59208;DHT22;44977;53.132;6.408;2024-03-17T01:08:23;4.30;99.90
59208;DHT22;44977;53.132;6.408;2024-03-17T01:13:24;4.30;99.90
59208;DHT22;44977;53.132;6.408;2024-03-17T01:18:25;4.20;99.90
59208;DHT22;44977;53.132;6.408;2024-03-17T01:23:26;4.20;99.90
59208;DHT22;44977;53.132;6.408;2024-03-17T01:28:26;4.20;99.90
59208;DHT22;44977;53.132;6.408;2024-03-17T01:33:27;4.10;99.90
59208;DHT22;44977;53.132;6.408;2024-03-17T01:38:28;4.00;99.90
59208;DHT22;44977;53.132;6.408;2024-03-17T01:43:28;4.00;99.90
59208;DHT22;44977;53.132;6.408;2024-03-17T01:48:29;3.90;99.90
59208;DHT22;44977;53.132;6.408;2024-03-17T01:53:30;3.80;99.90
59208;DHT22;44977;53.132;6.408;2024-03-17T01:58:30;3.70;99.90
59208;DHT22;44977;53.132;6.408;2024-03-17T02:03:32;3.70;99.90
59208;DHT22;44977;53.132;6.408;2024-03-17T02:08:47;3.60;99.90
59208;DHT22;44977;53.132;6.408;2024-03-17T02:13:48;3.60;99.90
59208;DHT22;44977;53.132;6.408;2024-03-17T02:18:49;3.50;99.90
59208;DHT22;44977;53.132;6.408;2024-03-17T02:23:50;3.40;99.90
59208;DHT22;44977;53.132;6.408;2024-03-17T02:28:50;3.40;99.90
59208;DHT22;44977;53.132;6.408;2024-03-17T02:33:51;3.40;99.90
59208;DHT22;44977;53.132;6.408;2024-03-17T02:38:52;3.30;99.90
59208;DHT22;44977;53.132;6.408;2024-03-17T02:44:14;3.40;99.90
59208;DHT22;44977;53.132;6.408;2024-03-17T02:49:14;3.40;99.90
59208;DHT22;44977;53.132;6.408;2024-03-17T02:54:18;3.40;99.90
59208;DHT22;44977;53.132;6.408;2024-03-17T02:59:19;3.40;99.90
59208;DHT22;44977;53.132;6.408;2024-03-17T03:04:20;3.40;99.90
59208;DHT22;44977;53.132;6.408;2024-03-17T03:09:20;3.50;99.90
59208;DHT22;44977;53.132;6.408;2024-03-17T03:14:26;3.50;99.90
59208;DHT22;44977;53.132;6.408;2024-03-17T03:19:27;3.50;99.90
59208;DHT22;44977;53.132;6.408;2024-03-17T03:24:28;3.50;99.90
59208;DHT22;44977;53.132;6.408;2024-03-17T03:29:28;3.50;99.90
59208;DHT22;44977;53.132;6.408;2024-03-17T03:34:29;3.60;99.90
59208;DHT22;44977;53.132;6.408;2024-03-17T03:39:29;3.60;99.90
59208;DHT22;44977;53.132;6.408;2024-03-17T03:44:32;3.70;99.90
59208;DHT22;44977;53.132;6.408;2024-03-17T03:49:33;3.70;99.90
59208;DHT22;44977;53.132;6.408;2024-03-17T03:54:34;3.80;99.90
59208;DHT22;44977;53.132;6.408;2024-03-17T03:59:36;3.80;99.90
59208;DHT22;44977;53.132;6.408;2024-03-17T04:04:36;3.90;99.90
59208;DHT22;44977;53.132;6.408;2024-03-17T04:09:38;3.90;99.90
59208;DHT22;44977;53.132;6.408;2024-03-17T04:14:38;4.00;99.90
59208;DHT22;44977;53.132;6.408;2024-03-17T04:19:39;4.00;99.90
59208;DHT22;44977;53.132;6.408;2024-03-17T04:24:41;4.00;99.90
59208;DHT22;44977;53.132;6.408;2024-03-17T04:29:41;4.10;99.90
59208;DHT22;44977;53.132;6.408;2024-03-17T04:34:42;4.10;99.90
59208;DHT22;44977;53.132;6.408;2024-03-17T04:39:46;4.20;99.90
59208;DHT22;44977;53.132;6.408;2024-03-17T04:44:47;4.20;99.90
59208;DHT22;44977;53.132;6.408;2024-03-17T04:49:47;4.20;99.90
59208;DHT22;44977;53.132;6.408;2024-03-17T04:54:48;4.20;99.90
59208;DHT22;44977;53.132;6.408;2024-03-17T04:59:49;4.30;99.90
59208;DHT22;44977;53.132;6.408;2024-03-17T05:04:50;4.30;99.90
59208;DHT22;44977;53.132;6.408;2024-03-17T05:09:51;4.40;99.90
59208;DHT22;44977;53.132;6.408;2024-03-17T05:14:51;4.40;99.90
59208;DHT22;44977;53.132;6.408;2024-03-17T05:19:52;4.50;99.90
59208;DHT22;44977;53.132;6.408;2024-03-17T05:24:53;4.50;99.90
59208;DHT22;44977;53.132;6.408;2024-03-17T05:29:54;4.50;99.90
59208;DHT22;44977;53.132;6.408;2024-03-17T05:34:54;4.50;99.90
59208;DHT22;44977;53.132;6.408;2024-03-17T05:39:55;4.60;99.90
59208;DHT22;44977;53.132;6.408;2024-03-17T05:44:56;4.60;99.90
59208;DHT22;44977;53.132;6.408;2024-03-17T05:49:57;4.60;99.90
59208;DHT22;44977;53.132;6.408;2024-03-17T05:54:57;4.60;99.90
59208;DHT22;44977;53.132;6.408;2024-03-17T05:59:58;4.70;99.90
59208;DHT22;44977;53.132;6.408;2024-03-17T06:04:59;4.70;99.90
59208;DHT22;44977;53.132;6.408;2024-03-17T06:10:04;4.70;99.90
59208;DHT22;44977;53.132;6.408;2024-03-17T06:15:06;4.70;99.90
59208;DHT22;44977;53.132;6.408;2024-03-17T06:20:07;4.70;99.90
59208;DHT22;44977;53.132;6.408;2024-03-17T06:25:14;4.70;99.90
59208;DHT22;44977;53.132;6.408;2024-03-17T06:30:15;4.80;99.90
59208;DHT22;44977;53.132;6.408;2024-03-17T06:35:16;4.80;99.90
59208;DHT22;44977;53.132;6.408;2024-03-17T06:40:18;4.90;99.90
59208;DHT22;44977;53.132;6.408;2024-03-17T06:45:19;5.00;99.90
59208;DHT22;44977;53.132;6.408;2024-03-17T06:50:21;5.10;99.90
59208;DHT22;44977;53.132;6.408;2024-03-17T06:55:22;5.10;99.90
59208;DHT22;44977;53.132;6.408;2024-03-17T07:00:23;5.20;99.90
59208;DHT22;44977;53.132;6.408;2024-03-17T07:05:25;5.30;99.90
59208;DHT22;44977;53.132;6.408;2024-03-17T07:10:26;5.40;99.90
59208;DHT22;44977;53.132;6.408;2024-03-17T07:15:27;5.50;99.90
59208;DHT22;44977;53.132;6.408;2024-03-17T07:20:28;5.60;99.90
59208;DHT22;44977;53.132;6.408;2024-03-17T07:25:28;5.70;99.90
59208;DHT22;44977;53.132;6.408;2024-03-17T07:30:29;5.80;99.90
59208;DHT22;44977;53.132;6.408;2024-03-17T07:35:30;5.90;99.90
59208;DHT22;44977;53.132;6.408;2024-03-17T07:40:31;6.00;99.90
59208;DHT22;44977;53.132;6.408;2024-03-17T07:45:31;6.10;99.90
59208;DHT22;44977;53.132;6.408;2024-03-17T07:50:32;6.20;99.90
59208;DHT22;44977;53.132;6.408;2024-03-17T07:55:35;6.30;99.90
59208;DHT22;44977;53.132;6.408;2024-03-17T08:00:35;6.30;99.90
59208;DHT22;44977;53.132;6.408;2024-03-17T08:05:38;6.50;99.90
59208;DHT22;44977;53.132;6.408;2024-03-17T08:10:38;6.60;99.90
59208;DHT22;44977;53.132;6.408;2024-03-17T08:15:39;6.70;99.90
59208;DHT22;44977;53.132;6.408;2024-03-17T08:20:41;6.80;99.90
59208;DHT22;44977;53.132;6.408;2024-03-17T08:25:42;7.00;99.90
59208;DHT22;44977;53.132;6.408;2024-03-17T08:31:01;7.10;99.90
59208;DHT22;44977;53.132;6.408;2024-03-17T08:36:03;7.20;99.90
59208;DHT22;44977;53.132;6.408;2024-03-17T08:41:08;7.30;99.90
59208;DHT22;44977;53.132;6.408;2024-03-17T08:46:10;7.40;99.90
59208;DHT22;44977;53.132;6.408;2024-03-17T08:51:12;7.50;99.90
59208;DHT22;44977;53.132;6.408;2024-03-17T08:56:13;7.70;99.90
59208;DHT22;44977;53.132;6.408;2024-03-17T09:01:15;7.90;99.90
59208;DHT22;44977;53.132;6.408;2024-03-17T09:06:17;8.00;99.90
59208;DHT22;44977;53.132;6.408;2024-03-17T09:11:19;8.20;99.90
59208;DHT22;44977;53.132;6.408;2024-03-17T09:16:25;8.40;99.90
59208;DHT22;44977;53.132;6.408;2024-03-17T09:21:26;8.60;99.90
59208;DHT22;44977;53.132;6.408;2024-03-17T09:26:26;8.70;99.90
59208;DHT22;44977;53.132;6.408;2024-03-17T09:31:27;8.90;99.90
59208;DHT22;44977;53.132;6.408;2024-03-17T09:36:28;9.20;99.90
59208;DHT22;44977;53.132;6.408;2024-03-17T09:41:29;9.30;99.90
59208;DHT22;44977;53.132;6.408;2024-03-17T09:46:30;9.30;99.90
59208;DHT22;44977;53.132;6.408;2024-03-17T09:51:31;9.40;99.90
59208;DHT22;44977;53.132;6.408;2024-03-17T09:56:32;9.40;99.90
59208;DHT22;44977;53.132;6.408;2024-03-17T10:01:34;9.40;99.90
59208;DHT22;44977;53.132;6.408;2024-03-17T10:06:44;9.40;99.90
59208;DHT22;44977;53.132;6.408;2024-03-17T10:11:46;9.40;99.90
59208;DHT22;44977;53.132;6.408;2024-03-17T10:16:46;9.40;99.90
59208;DHT22;44977;53.132;6.408;2024-03-17T10:21:47;9.40;99.90
59208;DHT22;44977;53.132;6.408;2024-03-17T10:26:56;9.50;99.90
59208;DHT22;44977;53.132;6.408;2024-03-17T10:31:58;9.50;99.90
59208;DHT22;44977;53.132;6.408;2024-03-17T10:37:10;9.50;99.90
59208;DHT22;44977;53.132;6.408;2024-03-17T10:42:22;9.50;99.90
59208;DHT22;44977;53.132;6.408;2024-03-17T10:47:27;9.50;99.90
59208;DHT22;44977;53.132;6.408;2024-03-17T10:52:28;9.50;99.90
59208;DHT22;44977;53.132;6.408;2024-03-17T11:02:36;9.60;99.90
59208;DHT22;44977;53.132;6.408;2024-03-17T11:07:37;9.70;99.90
59208;DHT22;44977;53.132;6.408;2024-03-17T11:12:44;9.70;99.90
59208;DHT22;44977;53.132;6.408;2024-03-17T11:17:49;9.80;99.90
59208;DHT22;44977;53.132;6.408;2024-03-17T11:22:57;9.90;99.90
59208;DHT22;44977;53.132;6.408;2024-03-17T11:27:59;9.90;99.90
59208;DHT22;44977;53.132;6.408;2024-03-17T11:33:01;10.00;99.90
59208;DHT22;44977;53.132;6.408;2024-03-17T11:38:01;10.00;99.90
59208;DHT22;44977;53.132;6.408;2024-03-17T11:43:03;10.10;99.90
59208;DHT22;44977;53.132;6.408;2024-03-17T11:48:12;10.20;99.90
59208;DHT22;44977;53.132;6.408;2024-03-17T11:53:14;10.20;99.90
59208;DHT22;44977;53.132;6.408;2024-03-17T11:58:15;10.30;99.90
59208;DHT22;44977;53.132;6.408;2024-03-17T12:03:17;10.40;99.90
59208;DHT22;44977;53.132;6.408;2024-03-17T12:08:21;10.60;99.90
59208;DHT22;44977;53.132;6.408;2024-03-17T12:13:21;10.70;99.90
59208;DHT22;44977;53.132;6.408;2024-03-17T12:18:22;10.80;99.90
59208;DHT22;44977;53.132;6.408;2024-03-17T12:23:23;10.90;99.90
59208;DHT22;44977;53.132;6.408;2024-03-17T12:28:24;11.00;99.90
59208;DHT22;44977;53.132;6.408;2024-03-17T12:33:25;11.10;99.90
59208;DHT22;44977;53.132;6.408;2024-03-17T12:38:26;11.20;99.90
59208;DHT22;44977;53.132;6.408;2024-03-17T12:43:26;11.20;99.90
59208;DHT22;44977;53.132;6.408;2024-03-17T12:48:27;11.30;99.90
59208;DHT22;44977;53.132;6.408;2024-03-17T12:53:28;11.30;99.90
59208;DHT22;44977;53.132;6.408;2024-03-17T12:58:28;11.40;99.90
59208;DHT22;44977;53.132;6.408;2024-03-17T13:04:07;11.40;99.90
59208;DHT22;44977;53.132;6.408;2024-03-17T13:09:08;11.40;99.90
59208;DHT22;44977;53.132;6.408;2024-03-17T13:14:10;11.50;99.90
59208;DHT22;44977;53.132;6.408;2024-03-17T13:19:15;11.50;99.90
59208;DHT22;44977;53.132;6.408;2024-03-17T13:24:16;11.50;99.90
59208;DHT22;44977;53.132;6.408;2024-03-17T13:29:17;11.50;99.90
59208;DHT22;44977;53.132;6.408;2024-03-17T13:34:17;11.50;99.90
59208;DHT22;44977;53.132;6.408;2024-03-17T13:39:18;11.50;99.90
59208;DHT22;44977;53.132;6.408;2024-03-17T13:44:21;11.50;99.90
59208;DHT22;44977;53.132;6.408;2024-03-17T13:49:21;11.50;99.90
59208;DHT22;44977;53.132;6.408;2024-03-17T13:54:23;11.50;99.90
59208;DHT22;44977;53.132;6.408;2024-03-17T13:59:24;11.50;99.90
59208;DHT22;44977;53.132;6.408;2024-03-17T14:04:25;11.40;99.90
59208;DHT22;44977;53.132;6.408;2024-03-17T14:09:30;11.40;99.90
59208;DHT22;44977;53.132;6.408;2024-03-17T14:14:31;11.40;99.90
59208;DHT22;44977;53.132;6.408;2024-03-17T14:19:32;11.40;99.90
59208;DHT22;44977;53.132;6.408;2024-03-17T14:24:33;11.40;99.90
59208;DHT22;44977;53.132;6.408;2024-03-17T14:29:35;11.40;99.90
59208;DHT22;44977;53.132;6.408;2024-03-17T14:34:36;11.40;99.90
59208;DHT22;44977;53.132;6.408;2024-03-17T14:39:38;11.30;99.90
59208;DHT22;44977;53.132;6.408;2024-03-17T14:44:40;11.30;99.90
59208;DHT22;44977;53.132;6.408;2024-03-17T14:49:41;11.30;99.90
59208;DHT22;44977;53.132;6.408;2024-03-17T14:54:42;11.30;99.90
59208;DHT22;44977;53.132;6.408;2024-03-17T14:59:43;11.30;99.90
59208;DHT22;44977;53.132;6.408;2024-03-17T15:04:43;11.20;99.90
59208;DHT22;44977;53.132;6.408;2024-03-17T15:09:44;11.20;99.90
59208;DHT22;44977;53.132;6.408;2024-03-17T15:14:46;11.20;99.90
59208;DHT22;44977;53.132;6.408;2024-03-17T15:19:47;11.20;99.90
59208;DHT22;44977;53.132;6.408;2024-03-17T15:24:48;11.20;99.90
59208;DHT22;44977;53.132;6.408;2024-03-17T15:29:49;11.20;99.90
59208;DHT22;44977;53.132;6.408;2024-03-17T15:34:50;11.20;99.90
59208;DHT22;44977;53.132;6.408;2024-03-17T15:39:50;11.20;99.90
59208;DHT22;44977;53.132;6.408;2024-03-17T15:44:51;11.20;99.90
59208;DHT22;44977;53.132;6.408;2024-03-17T15:49:51;11.20;99.90
59208;DHT22;44977;53.132;6.408;2024-03-17T15:54:52;11.20;99.90
59208;DHT22;44977;53.132;6.408;2024-03-17T15:59:53;11.20;99.90
59208;DHT22;44977;53.132;6.408;2024-03-17T16:04:55;11.20;99.90
59208;DHT22;44977;53.132;6.408;2024-03-17T16:09:56;11.20;99.90
59208;DHT22;44977;53.132;6.408;2024-03-17T16:14:56;11.10;99.90
59208;DHT22;44977;53.132;6.408;2024-03-17T16:20:01;11.10;99.90
59208;DHT22;44977;53.132;6.408;2024-03-17T16:25:10;11.10;99.90
59208;DHT22;44977;53.132;6.408;2024-03-17T16:30:11;11.00;99.90
59208;DHT22;44977;53.132;6.408;2024-03-17T16:35:13;11.00;99.90
59208;DHT22;44977;53.132;6.408;2024-03-17T16:40:14;10.90;99.90
59208;DHT22;44977;53.132;6.408;2024-03-17T16:45:17;10.90;99.90
59208;DHT22;44977;53.132;6.408;2024-03-17T16:50:19;10.90;99.90
59208;DHT22;44977;53.132;6.408;2024-03-17T16:55:20;10.90;99.90
59208;DHT22;44977;53.132;6.408;2024-03-17T17:00:21;10.80;99.90
59208;DHT22;44977;53.132;6.408;2024-03-17T17:05:26;10.80;99.90
59208;DHT22;44977;53.132;6.408;2024-03-17T17:10:26;10.80;99.90
59208;DHT22;44977;53.132;6.408;2024-03-17T17:15:28;10.70;99.90
59208;DHT22;44977;53.132;6.408;2024-03-17T17:20:29;10.70;99.90
59208;DHT22;44977;53.132;6.408;2024-03-17T17:25:34;10.70;99.90
59208;DHT22;44977;53.132;6.408;2024-03-17T17:30:35;10.70;99.90
59208;DHT22;44977;53.132;6.408;2024-03-17T17:35:37;10.60;99.90
59208;DHT22;44977;53.132;6.408;2024-03-17T17:40:38;10.60;99.90
59208;DHT22;44977;53.132;6.408;2024-03-17T17:45:38;10.60;99.90
59208;DHT22;44977;53.132;6.408;2024-03-17T17:50:39;10.50;99.90
59208;DHT22;44977;53.132;6.408;2024-03-17T17:55:42;10.40;99.90
59208;DHT22;44977;53.132;6.408;2024-03-17T18:00:42;10.40;99.90
59208;DHT22;44977;53.132;6.408;2024-03-17T18:05:43;10.40;99.90
59208;DHT22;44977;53.132;6.408;2024-03-17T18:10:43;10.30;99.90
59208;DHT22;44977;53.132;6.408;2024-03-17T18:15:45;10.30;99.90
59208;DHT22;44977;53.132;6.408;2024-03-17T18:20:59;10.30;99.90
59208;DHT22;44977;53.132;6.408;2024-03-17T18:26:08;10.30;99.90
59208;DHT22;44977;53.132;6.408;2024-03-17T18:31:10;10.20;99.90
59208;DHT22;44977;53.132;6.408;2024-03-17T18:36:12;10.20;99.90
59208;DHT22;44977;53.132;6.408;2024-03-17T18:41:13;10.10;99.90
59208;DHT22;44977;53.132;6.408;2024-03-17T18:46:16;10.10;99.90
59208;DHT22;44977;53.132;6.408;2024-03-17T18:51:18;10.00;99.90
59208;DHT22;44977;53.132;6.408;2024-03-17T18:56:21;10.00;99.90
59208;DHT22;44977;53.132;6.408;2024-03-17T19:01:22;10.00;99.90
59208;DHT22;44977;53.132;6.408;2024-03-17T19:06:22;9.90;99.90
59208;DHT22;44977;53.132;6.408;2024-03-17T19:11:24;9.90;99.90
59208;DHT22;44977;53.132;6.408;2024-03-17T19:16:25;9.80;99.90
59208;DHT22;44977;53.132;6.408;2024-03-17T19:21:26;9.80;99.90
59208;DHT22;44977;53.132;6.408;2024-03-17T19:26:26;9.80;99.90
59208;DHT22;44977;53.132;6.408;2024-03-17T19:31:28;9.80;99.90
59208;DHT22;44977;53.132;6.408;2024-03-17T19:36:29;9.70;99.90
59208;DHT22;44977;53.132;6.408;2024-03-17T19:41:29;9.70;99.90
59208;DHT22;44977;53.132;6.408;2024-03-17T19:46:30;9.70;99.90
59208;DHT22;44977;53.132;6.408;2024-03-17T19:51:31;9.60;99.90
59208;DHT22;44977;53.132;6.408;2024-03-17T19:56:32;9.50;99.90
59208;DHT22;44977;53.132;6.408;2024-03-17T20:01:33;9.50;99.90
59208;DHT22;44977;53.132;6.408;2024-03-17T20:06:34;9.50;99.90
59208;DHT22;44977;53.132;6.408;2024-03-17T20:11:34;9.40;99.90
59208;DHT22;44977;53.132;6.408;2024-03-17T20:16:36;9.30;99.90
59208;DHT22;44977;53.132;6.408;2024-03-17T20:21:39;9.20;99.90
59208;DHT22;44977;53.132;6.408;2024-03-17T20:26:40;9.20;99.90
59208;DHT22;44977;53.132;6.408;2024-03-17T20:31:40;9.10;99.90
59208;DHT22;44977;53.132;6.408;2024-03-17T20:36:41;9.10;99.90
59208;DHT22;44977;53.132;6.408;2024-03-17T20:41:42;9.10;99.90
59208;DHT22;44977;53.132;6.408;2024-03-17T20:46:43;9.00;99.90
59208;DHT22;44977;53.132;6.408;2024-03-17T20:51:44;8.90;99.90
59208;DHT22;44977;53.132;6.408;2024-03-17T20:56:44;8.90;99.90
59208;DHT22;44977;53.132;6.408;2024-03-17T21:01:45;9.00;99.90
59208;DHT22;44977;53.132;6.408;2024-03-17T21:06:46;8.90;99.90
59208;DHT22;44977;53.132;6.408;2024-03-17T21:11:49;8.90;99.90
59208;DHT22;44977;53.132;6.408;2024-03-17T21:16:50;8.90;99.90
59208;DHT22;44977;53.132;6.408;2024-03-17T21:21:51;8.80;99.90
59208;DHT22;44977;53.132;6.408;2024-03-17T21:26:52;8.80;99.90
59208;DHT22;44977;53.132;6.408;2024-03-17T21:31:52;8.80;99.90
59208;DHT22;44977;53.132;6.408;2024-03-17T21:36:53;8.70;99.90
59208;DHT22;44977;53.132;6.408;2024-03-17T21:41:54;8.80;99.90
59208;DHT22;44977;53.132;6.408;2024-03-17T21:46:54;8.70;99.90
59208;DHT22;44977;53.132;6.408;2024-03-17T21:51:56;8.80;99.90
59208;DHT22;44977;53.132;6.408;2024-03-17T21:56:57;8.70;99.90
59208;DHT22;44977;53.132;6.408;2024-03-17T22:01:58;8.70;99.90
59208;DHT22;44977;53.132;6.408;2024-03-17T22:06:58;8.70;99.90
59208;DHT22;44977;53.132;6.408;2024-03-17T22:11:59;8.70;99.90
59208;DHT22;44977;53.132;6.408;2024-03-17T22:17:00;8.70;99.90
59208;DHT22;44977;53.132;6.408;2024-03-17T22:22:01;8.70;99.90
59208;DHT22;44977;53.132;6.408;2024-03-17T22:27:03;8.70;99.90
59208;DHT22;44977;53.132;6.408;2024-03-17T22:32:04;8.70;99.90
59208;DHT22;44977;53.132;6.408;2024-03-17T22:37:05;8.70;99.90
59208;DHT22;44977;53.132;6.408;2024-03-17T22:42:05;8.80;99.90
59208;DHT22;44977;53.132;6.408;2024-03-17T22:47:06;8.70;99.90
59208;DHT22;44977;53.132;6.408;2024-03-17T22:52:07;8.80;99.90
59208;DHT22;44977;53.132;6.408;2024-03-17T22:57:07;8.70;99.90
59208;DHT22;44977;53.132;6.408;2024-03-17T23:02:08;8.70;99.90
59208;DHT22;44977;53.132;6.408;2024-03-17T23:07:09;8.70;99.90
59208;DHT22;44977;53.132;6.408;2024-03-17T23:12:10;8.70;99.90
59208;DHT22;44977;53.132;6.408;2024-03-17T23:17:11;8.70;99.90
59208;DHT22;44977;53.132;6.408;2024-03-17T23:22:11;8.70;99.90
59208;DHT22;44977;53.132;6.408;2024-03-17T23:27:12;8.70;99.90
59208;DHT22;44977;53.132;6.408;2024-03-17T23:32:13;8.60;99.90
59208;DHT22;44977;53.132;6.408;2024-03-17T23:37:14;8.60;99.90
59208;DHT22;44977;53.132;6.408;2024-03-17T23:42:14;8.60;99.90
59208;DHT22;44977;53.132;6.408;2024-03-17T23:47:17;8.60;99.90
59208;DHT22;44977;53.132;6.408;2024-03-17T23:52:18;8.60;99.90
59208;DHT22;44977;53.132;6.408;2024-03-17T23:57:18;8.60;99.90
